Time;durP1;ratioP1;P1;durP2;ratioP2;P2;SDS_P1;SDS_P2;PMS_P1;PMS_P2;Temp;Humidity;BMP_temperature;BMP_pressure;BME280_temperature;BME280_humidity;BME280_pressure;Samples;Min_cycle;Max_cycle;Signal;HPM_P1;HPM_P2
2022/01/23 00:00:19;;;;;;;112.07;100.80;;;6.60;99.90;;;;;;4998584;28;20046;-78
2022/01/23 00:02:47;;;;;;;112.95;101.20;;;6.60;99.90;;;;;;5014711;28;20109;-79
2022/01/23 00:05:20;;;;;;;110.93;100.03;;;6.60;99.90;;;;;;5016202;28;20050;-78
2022/01/23 00:07:51;;;;;;;111.13;100.10;;;6.60;99.90;;;;;;5014508;28;20069;-78
2022/01/23 00:10:19;;;;;;;112.03;100.72;;;6.60;99.90;;;;;;4998477;28;20265;-78
2022/01/23 00:12:50;;;;;;;111.43;100.07;;;6.60;99.90;;;;;;4998335;28;20050;-79
2022/01/23 00:18:03;;;;;;;110.95;99.93;;;6.60;99.90;;;;;;4997965;28;20065;-79
2022/01/23 00:20:29;;;;;;;;;;;6.60;99.90;;;;;;4998757;28;20046;-78
2022/01/23 00:23:01;;;;;;;111.50;99.82;;;6.60;99.90;;;;;;5015024;28;19926;-78
2022/01/23 00:30:59;;;;;;;111.63;100.35;;;6.60;99.90;;;;;;4997561;28;20141;-79
2022/01/23 00:33:27;;;;;;;113.63;102.53;;;6.60;99.90;;;;;;4997864;28;20053;-79
2022/01/23 00:35:54;;;;;;;114.15;102.78;;;6.60;99.90;;;;;;4998281;28;20058;-78
2022/01/23 00:38:23;;;;;;;;;;;6.60;99.90;;;;;;4997930;28;20046;-78
2022/01/23 00:40:50;;;;;;;112.57;101.00;;;6.60;99.90;;;;;;5031357;28;19926;-79
2022/01/23 00:43:26;;;;;;;113.45;102.00;;;6.60;99.90;;;;;;4997836;28;20054;-78
2022/01/23 00:46:07;;;;;;;112.45;101.20;;;6.60;99.90;;;;;;5015598;28;20477;-78
2022/01/23 00:48:37;;;;;;;113.38;101.88;;;6.60;99.90;;;;;;4997322;28;20477;-79
2022/01/23 00:51:04;;;;;;;113.32;101.40;;;6.60;99.90;;;;;;5014174;28;20146;-78
2022/01/23 00:53:32;;;;;;;113.65;101.93;;;6.60;99.90;;;;;;4997085;28;20050;-78
2022/01/23 00:55:59;;;;;;;117.30;105.85;;;6.60;99.90;;;;;;4996093;28;20055;-79
2022/01/23 00:58:26;;;;;;;113.50;101.95;;;6.60;99.90;;;;;;4995858;28;20047;-79
2022/01/23 01:00:54;;;;;;;116.57;104.97;;;6.60;99.90;;;;;;4997497;28;20055;-79
2022/01/23 01:03:21;;;;;;;116.07;104.30;;;6.60;99.90;;;;;;5013663;28;20094;-79
2022/01/23 01:05:48;;;;;;;115.15;103.60;;;6.60;99.90;;;;;;4997309;28;20061;-79
2022/01/23 01:08:15;;;;;;;116.05;104.18;;;6.60;99.90;;;;;;4997250;28;20054;-78
2022/01/23 01:10:53;;;;;;;114.60;103.22;;;6.60;99.90;;;;;;4997575;28;20050;-78
2022/01/23 01:13:23;;;;;;;115.53;103.78;;;6.60;99.90;;;;;;4997638;28;20070;-78
2022/01/23 01:16:12;;;;;;;115.63;103.97;;;6.60;99.90;;;;;;4997485;28;20054;-78
2022/01/23 01:32:44;;;;;;;115.30;103.60;;;6.60;99.90;;;;;;4996826;28;20285;-78
2022/01/23 01:35:21;;;;;;;114.32;102.78;;;6.60;99.90;;;;;;4997308;28;20489;-79
2022/01/23 01:37:48;;;;;;;113.53;102.03;;;6.70;99.90;;;;;;4997078;28;20125;-79
2022/01/23 01:40:17;;;;;;;114.20;102.63;;;6.60;99.90;;;;;;4996944;28;20113;-78
2022/01/23 01:42:46;;;;;;;114.35;102.70;;;6.60;99.90;;;;;;4996450;28;20062;-79
2022/01/23 01:45:22;;;;;;;114.10;102.47;;;6.60;99.90;;;;;;5013297;28;20061;-78
2022/01/23 01:47:59;;;;;;;114.10;102.57;;;6.60;99.90;;;;;;5014499;28;20073;-79
2022/01/23 01:50:26;;;;;;;114.40;102.53;;;6.60;99.90;;;;;;4996770;28;21116;-79
2022/01/23 01:52:54;;;;;;;113.95;102.57;;;6.60;99.90;;;;;;4980782;28;20064;-79
2022/01/23 01:55:26;;;;;;;113.63;102.13;;;6.60;99.90;;;;;;4996824;28;20109;-79
2022/01/23 01:58:03;;;;;;;113.10;101.13;;;6.60;99.90;;;;;;4996456;28;20097;-79
2022/01/23 02:00:54;;;;;;;113.40;102.10;;;6.70;99.90;;;;;;5012887;28;20047;-79
2022/01/23 02:10:19;;;;;;;115.38;103.50;;;6.60;99.90;;;;;;4996539;28;20116;-79
2022/01/23 02:22:28;;;;;;;114.50;102.72;;;6.60;99.90;;;;;;4986545;28;21019;-79
2022/01/23 02:24:59;;;;;;;113.60;102.00;;;6.60;99.90;;;;;;4995895;28;20064;-79
2022/01/23 02:52:33;;;;;;;115.00;103.18;;;6.50;99.90;;;;;;4996278;28;20042;-79
2022/01/23 02:55:11;;;;;;;115.70;103.82;;;6.50;99.90;;;;;;4999507;28;20054;-78
2022/01/23 02:57:51;;;;;;;113.07;101.75;;;6.60;99.90;;;;;;5015696;28;20105;-78
2022/01/23 03:00:24;;;;;;;114.95;103.45;;;6.50;99.90;;;;;;4999486;28;20059;-78
2022/01/23 03:03:05;;;;;;;114.93;103.38;;;6.50;99.90;;;;;;4999222;28;20054;-78
2022/01/23 03:06:11;;;;;;;117.00;105.38;;;6.50;99.90;;;;;;4998986;28;20117;-78
2022/01/23 03:09:03;;;;;;;116.78;104.88;;;6.50;99.90;;;;;;4999200;28;20051;-79
2022/01/23 03:11:54;;;;;;;114.90;103.00;;;6.50;99.90;;;;;;4999534;28;20054;-79
2022/01/23 03:14:34;;;;;;;115.97;104.40;;;6.60;99.90;;;;;;4998922;28;20125;-78
2022/01/23 03:25:35;;;;;;;117.47;105.78;;;6.60;99.90;;;;;;4998910;28;20057;-79
2022/01/23 03:28:18;;;;;;;115.88;103.90;;;6.60;99.90;;;;;;4998714;28;20101;-79
2022/01/23 03:30:53;;;;;;;119.32;107.22;;;6.60;99.90;;;;;;4998368;28;20042;-79
2022/01/23 03:33:20;;;;;;;114.95;103.13;;;6.60;99.90;;;;;;4998948;28;20104;-78
2022/01/23 03:35:47;;;;;;;;;;;6.60;99.90;;;;;;4998930;28;20515;-79
2022/01/23 03:38:14;;;;;;;116.15;104.28;;;6.50;99.90;;;;;;4998904;28;19925;-79
2022/01/23 03:40:41;;;;;;;114.28;102.95;;;6.50;99.90;;;;;;4998675;28;20046;-79
2022/01/23 03:43:12;;;;;;;;;;;6.50;99.90;;;;;;4999188;28;20117;-79
2022/01/23 03:46:08;;;;;;;114.47;102.38;;;6.50;99.90;;;;;;4998999;28;20915;-78
2022/01/23 03:51:21;;;;;;;116.15;104.53;;;6.50;99.90;;;;;;4998453;28;20057;-79
2022/01/23 03:53:51;;;;;;;115.82;104.20;;;6.50;99.90;;;;;;4998622;28;20081;-78
2022/01/23 03:56:22;;;;;;;113.72;102.20;;;6.50;99.90;;;;;;4998627;28;20500;-79
2022/01/23 03:58:50;;;;;;;115.00;103.57;;;6.60;99.90;;;;;;4998053;28;20487;-78
2022/01/23 04:01:20;;;;;;;115.88;104.28;;;6.60;99.90;;;;;;4998347;28;20046;-79
2022/01/23 04:03:50;;;;;;;114.85;103.45;;;6.60;99.90;;;;;;4998295;28;20051;-79
2022/01/23 04:06:17;;;;;;;114.00;102.63;;;6.60;99.90;;;;;;4997842;28;20050;-78
2022/01/23 04:08:48;;;;;;;115.85;104.22;;;6.60;99.90;;;;;;4997947;28;20105;-79
2022/01/23 04:11:15;;;;;;;114.20;103.07;;;6.60;99.90;;;;;;4998292;28;20133;-78
2022/01/23 04:13:46;;;;;;;114.10;102.65;;;6.60;99.90;;;;;;4998460;28;20555;-79
2022/01/23 04:16:38;;;;;;;115.63;103.82;;;6.60;99.90;;;;;;4998202;28;20050;-79
2022/01/23 04:19:16;;;;;;;114.63;103.13;;;6.70;99.90;;;;;;4998138;28;20050;-78
2022/01/23 04:33:15;;;;;;;113.68;102.40;;;6.70;99.90;;;;;;4998217;28;20058;-79
2022/01/23 04:45:11;;;;;;;116.85;105.18;;;6.70;99.90;;;;;;4998154;28;20046;-79
2022/01/23 05:00:47;;;;;;;115.35;104.13;;;6.70;99.90;;;;;;4997924;28;20069;-78
2022/01/23 05:06:23;;;;;;;114.93;103.53;;;6.80;99.90;;;;;;4997452;28;20057;-79
2022/01/23 05:09:25;;;;;;;114.75;103.32;;;6.80;99.90;;;;;;4986422;28;20050;-78
2022/01/23 05:11:56;;;;;;;113.97;102.80;;;6.70;99.90;;;;;;4997651;28;20050;-79
2022/01/23 05:14:30;;;;;;;113.90;102.60;;;6.70;99.90;;;;;;5013659;28;20078;-78
2022/01/23 05:16:58;;;;;;;113.68;102.47;;;6.70;99.90;;;;;;4996121;28;20050;-80
2022/01/23 05:19:26;;;;;;;114.20;103.00;;;6.70;99.90;;;;;;4997535;28;20495;-79
2022/01/23 05:25:26;;;;;;;113.20;101.82;;;6.70;99.90;;;;;;4997015;28;20142;-78
2022/01/23 05:27:54;;;;;;;113.30;102.15;;;6.70;99.90;;;;;;4997173;28;20077;-79
2022/01/23 05:30:22;;;;;;;114.88;103.45;;;6.70;99.90;;;;;;4996661;28;20082;-79
2022/01/23 05:32:51;;;;;;;113.15;102.05;;;6.70;99.90;;;;;;4997340;28;20077;-79
2022/01/23 05:35:22;;;;;;;112.72;101.68;;;6.60;99.90;;;;;;4996864;28;20045;-79
2022/01/23 05:37:50;;;;;;;115.00;103.60;;;6.60;99.90;;;;;;4996809;28;20078;-78
2022/01/23 05:40:22;;;;;;;114.40;102.95;;;6.60;99.90;;;;;;5014705;28;20050;-79
2022/01/23 05:42:54;;;;;;;114.20;102.75;;;6.60;99.90;;;;;;4996458;28;20050;-78
2022/01/23 05:45:21;;;;;;;113.40;102.20;;;6.60;99.90;;;;;;4996304;28;20123;-78
2022/01/23 05:48:06;;;;;;;114.72;103.35;;;6.60;99.90;;;;;;4995852;28;20047;-79
2022/01/23 05:50:52;;;;;;;113.70;102.40;;;6.60;99.90;;;;;;4996250;28;20053;-78
2022/01/23 05:53:38;;;;;;;113.30;102.20;;;6.60;99.90;;;;;;4996775;28;20089;-78
2022/01/23 05:56:30;;;;;;;116.15;104.72;;;6.60;99.90;;;;;;4996980;28;20058;-79
2022/01/23 05:59:21;;;;;;;111.97;100.97;;;6.60;99.90;;;;;;4986380;28;20051;-79
2022/01/23 06:01:51;;;;;;;114.07;102.88;;;6.50;99.90;;;;;;4996511;28;20046;-78
2022/01/23 06:04:20;;;;;;;113.63;102.60;;;6.60;99.90;;;;;;4996843;28;20136;-79
2022/01/23 06:07:09;;;;;;;114.18;102.93;;;6.60;99.90;;;;;;4996277;28;20046;-78
2022/01/23 06:13:34;;;;;;;113.22;101.93;;;6.60;99.90;;;;;;4995831;28;20076;-79
2022/01/23 06:16:03;;;;;;;111.18;100.35;;;6.60;99.90;;;;;;4995754;28;20174;-79
2022/01/23 06:18:32;;;;;;;112.38;101.05;;;6.60;99.90;;;;;;5011555;28;20100;-79
2022/01/23 06:21:19;;;;;;;114.07;102.43;;;6.60;99.90;;;;;;4994790;28;20050;-79
2022/01/23 06:24:08;;;;;;;112.40;101.30;;;6.60;99.90;;;;;;4995503;28;20508;-78
2022/01/23 06:26:55;;;;;;;115.13;103.70;;;6.60;99.90;;;;;;4995464;28;20090;-80
2022/01/23 06:29:24;;;;;;;112.90;101.70;;;6.60;99.90;;;;;;4995309;28;20137;-79
2022/01/23 06:31:55;;;;;;;112.00;101.10;;;6.70;99.90;;;;;;5008182;28;20049;-79
2022/01/23 06:34:22;;;;;;;113.47;102.43;;;6.70;99.90;;;;;;5015228;28;20466;-80
2022/01/23 06:36:52;;;;;;;;;;;6.70;99.90;;;;;;5032472;28;20058;-80
2022/01/23 06:39:21;;;;;;;116.95;105.43;;;6.70;99.90;;;;;;5015355;28;19937;-79
2022/01/23 06:41:50;;;;;;;114.65;103.55;;;6.70;99.90;;;;;;5048094;28;20096;-78
2022/01/23 06:44:27;;;;;;;114.90;103.60;;;6.70;99.90;;;;;;5032132;28;20046;-79
2022/01/23 06:46:57;;;;;;;114.25;103.03;;;6.70;99.90;;;;;;4999647;28;20053;-78
2022/01/23 06:49:24;;;;;;;112.35;101.35;;;6.70;99.90;;;;;;5015626;28;20046;-79
2022/01/23 06:51:51;;;;;;;113.95;102.40;;;6.70;99.90;;;;;;5032334;28;20050;-78
2022/01/23 06:54:19;;;;;;;112.65;101.57;;;6.70;99.90;;;;;;5015790;28;20096;-79
2022/01/23 06:56:47;;;;;;;113.32;102.18;;;6.70;99.90;;;;;;5031883;28;20054;-78
2022/01/23 06:59:14;;;;;;;112.68;101.57;;;6.70;99.90;;;;;;4999203;28;20100;-79
2022/01/23 07:01:49;;;;;;;114.03;103.07;;;6.70;99.90;;;;;;5048835;28;20054;-78
2022/01/23 07:04:41;;;;;;;116.95;105.55;;;6.70;99.90;;;;;;5006849;28;20093;-79
2022/01/23 07:07:44;;;;;;;116.22;104.85;;;6.70;99.90;;;;;;4935922;28;20505;-79
2022/01/23 07:10:37;;;;;;;115.95;104.60;;;6.70;99.90;;;;;;4997199;28;20054;-78
2022/01/23 07:13:23;;;;;;;115.88;104.57;;;6.70;99.90;;;;;;4998657;28;20056;-78
2022/01/23 07:16:14;;;;;;;117.57;106.47;;;6.70;99.90;;;;;;5015395;28;20046;-79
2022/01/23 07:18:59;;;;;;;120.05;108.32;;;6.70;99.90;;;;;;5047342;28;20046;-79
2022/01/23 07:21:32;;;;;;;114.97;103.93;;;6.60;99.90;;;;;;4998402;28;20500;-79
2022/01/23 07:23:59;;;;;;;116.10;104.80;;;6.60;99.90;;;;;;4998655;28;20136;-79
2022/01/23 07:26:27;;;;;;;;;;;6.60;99.90;;;;;;5033322;28;20054;-78
2022/01/23 07:29:01;;;;;;;115.65;104.28;;;6.60;99.90;;;;;;5015266;28;20829;-79
2022/01/23 07:31:45;;;;;;;117.45;106.22;;;6.60;99.90;;;;;;5015026;28;20128;-79
2022/01/23 07:34:13;;;;;;;116.00;104.63;;;6.60;99.90;;;;;;5031668;28;20053;-79
2022/01/23 07:36:42;;;;;;;115.80;104.43;;;6.60;99.90;;;;;;4998626;28;20053;-78
2022/01/23 07:39:28;;;;;;;118.13;106.90;;;6.60;99.90;;;;;;5048000;28;20061;-79
2022/01/23 07:42:00;;;;;;;117.05;105.75;;;6.60;99.90;;;;;;5034718;28;20062;-79
2022/01/23 07:44:45;;;;;;;115.78;104.38;;;6.60;99.90;;;;;;5051160;28;20077;-79
2022/01/23 07:47:31;;;;;;;116.80;105.63;;;6.60;99.90;;;;;;5051446;28;20077;-78
2022/01/23 07:50:29;;;;;;;117.97;106.57;;;6.60;99.90;;;;;;5017932;28;20053;-79
2022/01/23 07:53:21;;;;;;;115.57;104.40;;;6.60;99.90;;;;;;5018149;28;20046;-79
2022/01/23 07:55:54;;;;;;;116.68;105.53;;;6.60;99.90;;;;;;5017037;28;20061;-79
2022/01/23 07:58:31;;;;;;;116.13;104.72;;;6.60;99.90;;;;;;5017855;28;20107;-79
2022/01/23 08:01:17;;;;;;;115.07;104.13;;;6.60;99.90;;;;;;5051146;28;20136;-78
2022/01/23 08:04:03;;;;;;;116.50;105.30;;;6.60;99.90;;;;;;5034090;28;20054;-79
2022/01/23 08:06:33;;;;;;;115.65;104.40;;;6.60;99.90;;;;;;4998188;28;20567;-79
2022/01/23 08:09:27;;;;;;;114.82;103.72;;;6.60;99.90;;;;;;4996598;28;20109;-79
2022/01/23 08:11:54;;;;;;;115.20;104.30;;;6.60;99.90;;;;;;4977915;28;20809;-79
2022/01/23 08:14:21;;;;;;;115.72;104.57;;;6.60;99.90;;;;;;5011040;28;20054;-79
2022/01/23 08:16:48;;;;;;;116.70;105.13;;;6.60;99.90;;;;;;4996225;28;20504;-79
2022/01/23 08:19:16;;;;;;;115.70;104.50;;;6.50;99.90;;;;;;5011115;28;20153;-78
2022/01/23 08:21:43;;;;;;;116.15;104.95;;;6.60;99.90;;;;;;5010871;28;20055;-79
2022/01/23 08:24:11;;;;;;;116.28;105.15;;;6.60;99.90;;;;;;5011257;28;20051;-79
2022/01/23 08:26:39;;;;;;;114.35;103.35;;;6.60;99.90;;;;;;5010894;28;20051;-79
2022/01/23 08:29:06;;;;;;;114.68;103.63;;;6.60;99.90;;;;;;5010590;28;20059;-79
2022/01/23 08:31:34;;;;;;;115.03;103.72;;;6.60;99.90;;;;;;5010372;28;20089;-79
2022/01/23 08:34:00;;;;;;;;;;;6.60;99.90;;;;;;5011632;28;20833;-79
2022/01/23 08:36:29;;;;;;;116.63;105.13;;;6.60;99.90;;;;;;5010528;28;19932;-79
2022/01/23 08:38:58;;;;;;;115.68;104.57;;;6.60;99.90;;;;;;4978205;28;20058;-79
2022/01/23 08:44:10;;;;;;;116.80;105.57;;;6.60;99.90;;;;;;4978292;28;20429;-78
2022/01/23 08:46:37;;;;;;;118.43;107.13;;;6.60;99.90;;;;;;5010557;28;20137;-79
2022/01/23 08:49:05;;;;;;;116.07;104.88;;;6.60;99.90;;;;;;5010673;28;21009;-79
2022/01/23 08:51:32;;;;;;;115.70;104.63;;;6.60;99.90;;;;;;4997180;28;20630;-76
2022/01/23 08:53:59;;;;;;;115.43;104.13;;;6.60;99.90;;;;;;5011526;28;20058;-76
2022/01/23 08:56:26;;;;;;;116.63;105.47;;;6.60;99.90;;;;;;4998637;28;20054;-81
2022/01/23 08:58:54;;;;;;;115.40;104.35;;;6.60;99.90;;;;;;4995360;28;20058;-79
2022/01/23 09:01:22;;;;;;;116.80;105.50;;;6.60;99.90;;;;;;4995346;28;20825;-80
2022/01/23 09:03:49;;;;;;;117.55;106.38;;;6.60;99.90;;;;;;5027632;28;20517;-81
2022/01/23 09:06:17;;;;;;;117.05;105.72;;;6.70;99.90;;;;;;5028949;28;20121;-81
2022/01/23 09:08:45;;;;;;;116.13;105.03;;;6.70;99.90;;;;;;5012790;28;20054;-81
2022/01/23 09:11:24;;;;;;;114.75;103.80;;;6.70;99.90;;;;;;4995108;28;20082;-81
2022/01/23 09:14:05;;;;;;;114.40;103.13;;;6.70;99.90;;;;;;5028290;28;21068;-81
2022/01/23 09:17:02;;;;;;;113.35;102.45;;;6.70;99.90;;;;;;4996029;28;20050;-79
2022/01/23 09:19:30;;;;;;;114.20;103.20;;;6.70;99.90;;;;;;5029694;28;20046;-79
2022/01/23 09:22:47;;;;;;;114.28;103.25;;;6.70;99.90;;;;;;4995421;28;20061;-79
2022/01/23 09:25:14;;;;;;;113.40;102.60;;;6.80;99.90;;;;;;4995680;28;20134;-79
2022/01/23 09:27:42;;;;;;;114.60;103.60;;;6.80;99.90;;;;;;5013551;28;20059;-80
2022/01/23 09:30:17;;;;;;;115.40;104.55;;;6.80;99.90;;;;;;4996798;28;20046;-81
2022/01/23 09:32:46;;;;;;;114.05;103.32;;;6.80;99.90;;;;;;4997219;28;20492;-80
2022/01/23 09:35:14;;;;;;;113.97;103.18;;;6.80;99.90;;;;;;4996842;28;20536;-80
2022/01/23 09:37:41;;;;;;;114.32;103.45;;;6.80;99.90;;;;;;4996834;28;20061;-79
2022/01/23 09:40:10;;;;;;;113.30;102.32;;;6.90;99.90;;;;;;4997012;28;20130;-79
2022/01/23 09:42:44;;;;;;;114.18;103.38;;;6.90;99.90;;;;;;4996836;28;20523;-79
2022/01/23 09:45:14;;;;;;;114.88;103.97;;;6.90;99.90;;;;;;4996320;28;20055;-80
2022/01/23 09:47:41;;;;;;;114.05;103.25;;;6.90;99.90;;;;;;4996077;28;20893;-80
2022/01/23 09:50:13;;;;;;;115.53;104.53;;;6.90;99.90;;;;;;5029463;28;20054;-80
2022/01/23 09:52:42;;;;;;;116.63;105.55;;;7.00;99.90;;;;;;5029549;28;20050;-80
2022/01/23 09:55:12;;;;;;;116.25;105.25;;;7.00;99.90;;;;;;5029566;28;20090;-79
2022/01/23 09:57:41;;;;;;;115.88;104.82;;;7.00;99.90;;;;;;5025653;28;20128;-79
2022/01/23 10:00:12;;;;;;;117.20;106.15;;;7.00;99.90;;;;;;5012529;28;20137;-79
2022/01/23 10:02:42;;;;;;;117.57;106.50;;;7.00;99.90;;;;;;5011126;28;20050;-79
2022/01/23 10:05:11;;;;;;;118.03;106.78;;;7.00;99.90;;;;;;5029152;28;20060;-78
2022/01/23 10:07:39;;;;;;;117.20;106.15;;;7.00;99.90;;;;;;5012388;28;20061;-79
2022/01/23 10:10:11;;;;;;;117.03;105.90;;;7.10;99.90;;;;;;4996047;28;20058;-79
2022/01/23 10:12:40;;;;;;;117.03;105.80;;;7.10;99.90;;;;;;5027269;28;20051;-79
2022/01/23 10:15:08;;;;;;;117.32;105.93;;;7.10;99.90;;;;;;4999256;28;20046;-79
2022/01/23 10:17:36;;;;;;;119.68;108.32;;;7.10;99.90;;;;;;5013942;28;20120;-79
2022/01/23 10:20:05;;;;;;;115.75;104.78;;;7.20;99.90;;;;;;5028520;28;20535;-79
2022/01/23 10:22:35;;;;;;;116.88;105.78;;;7.20;99.90;;;;;;4996134;28;20058;-79
2022/01/23 10:25:08;;;;;;;116.10;105.10;;;7.20;99.90;;;;;;5012107;28;20049;-78
2022/01/23 10:27:52;;;;;;;116.70;105.70;;;7.20;99.90;;;;;;4995614;28;20062;-78
2022/01/23 10:30:20;;;;;;;116.82;105.70;;;7.20;99.90;;;;;;5013317;28;20054;-78
2022/01/23 10:32:57;;;;;;;117.75;106.32;;;7.20;99.90;;;;;;5013191;28;20061;-78
2022/01/23 10:35:25;;;;;;;117.43;106.03;;;7.30;99.90;;;;;;4995526;28;20054;-78
2022/01/23 10:37:55;;;;;;;118.97;107.85;;;7.30;99.90;;;;;;4995438;28;20054;-78
2022/01/23 10:40:30;;;;;;;119.25;107.95;;;7.30;99.90;;;;;;5012702;28;20054;-80
2022/01/23 10:48:47;;;;;;;121.20;109.70;;;7.30;99.90;;;;;;4991404;28;20057;-79
2022/01/23 10:51:20;;;;;;;117.80;106.70;;;7.30;99.90;;;;;;5027593;28;20046;-79
2022/01/23 10:54:07;;;;;;;116.07;105.15;;;7.40;99.90;;;;;;5013330;28;20077;-79
2022/01/23 10:56:39;;;;;;;114.15;103.15;;;7.40;99.90;;;;;;4994807;28;20053;-79
2022/01/23 10:59:09;;;;;;;117.10;106.10;;;7.40;99.90;;;;;;4978725;28;20046;-79
2022/01/23 11:01:36;;;;;;;116.15;105.22;;;7.40;99.90;;;;;;4994922;28;20511;-78
2022/01/23 11:04:10;;;;;;;117.40;106.40;;;7.40;99.90;;;;;;4995048;28;20054;-80
2022/01/23 11:06:55;;;;;;;115.88;105.07;;;7.50;99.90;;;;;;4995104;28;20058;-79
2022/01/23 11:09:28;;;;;;;116.75;105.68;;;7.50;99.90;;;;;;5011694;28;20051;-79
2022/01/23 11:12:01;;;;;;;117.75;106.65;;;7.50;99.90;;;;;;4995360;28;20516;-79
2022/01/23 11:17:24;;;;;;;117.70;106.70;;;7.50;99.90;;;;;;4998326;28;20062;-78
2022/01/23 11:19:52;;;;;;;;;;;7.50;99.90;;;;;;4998552;28;20047;-79
2022/01/23 11:22:23;;;;;;;114.93;103.97;;;7.50;99.90;;;;;;4998717;28;19933;-78
2022/01/23 11:24:53;;;;;;;113.43;102.65;;;7.50;99.90;;;;;;4992948;28;20042;-76
2022/01/23 11:27:22;;;;;;;112.78;102.28;;;7.60;99.90;;;;;;4998080;28;20050;-79
2022/01/23 11:29:54;;;;;;;112.60;101.93;;;7.50;99.90;;;;;;4998129;28;20832;-77
2022/01/23 11:32:24;;;;;;;115.47;104.68;;;7.50;99.90;;;;;;4997594;28;20051;-78
2022/01/23 11:34:57;;;;;;;113.65;102.97;;;7.50;99.90;;;;;;4978839;28;20054;-78
2022/01/23 11:37:24;;;;;;;115.68;104.88;;;7.50;99.90;;;;;;4994738;28;20539;-78
2022/01/23 11:39:58;;;;;;;;;;;7.50;99.90;;;;;;5012278;28;20085;-78
2022/01/23 11:51:02;;;;;;;114.53;103.63;;;7.60;99.90;;;;;;4997537;28;20050;-77
2022/01/23 11:53:51;;;;;;;114.38;103.60;;;7.50;99.90;;;;;;4997501;28;20096;-77
2022/01/23 11:56:47;;;;;;;112.05;101.45;;;7.50;99.90;;;;;;5000822;28;20112;-77
2022/01/23 11:59:39;;;;;;;;;;;7.60;99.90;;;;;;5026864;28;20061;-77
2022/01/23 12:02:36;;;;;;;111.97;101.38;;;7.50;99.90;;;;;;4978810;28;20028;-78
2022/01/23 12:05:22;;;;;;;111.55;101.05;;;7.60;99.90;;;;;;5033822;28;20061;-78
2022/01/23 12:08:16;;;;;;;109.60;99.22;;;7.50;99.90;;;;;;5034794;28;20058;-77
2022/01/23 12:11:23;;;;;;;109.45;99.07;;;7.60;99.70;;;;;;5017304;28;20843;-78
2022/01/23 12:17:18;;;;;;;109.55;99.15;;;7.50;99.50;;;;;;5020748;28;20109;-76
2022/01/23 12:19:57;;;;;;;110.07;99.78;;;7.50;99.50;;;;;;4978187;28;20945;-77
2022/01/23 12:22:34;;;;;;;110.07;99.78;;;7.50;99.50;;;;;;4995676;28;20054;-77
2022/01/23 12:25:09;;;;;;;;;;;7.50;99.50;;;;;;5009937;28;20113;-76
2022/01/23 12:27:36;;;;;;;109.97;99.47;;;7.50;99.50;;;;;;5029775;28;20474;-76
2022/01/23 12:30:34;;;;;;;110.22;99.72;;;7.50;99.50;;;;;;5002604;28;20057;-77
2022/01/23 12:33:20;;;;;;;109.78;99.47;;;7.50;99.10;;;;;;4995445;28;20058;-76
2022/01/23 12:35:50;;;;;;;108.47;98.07;;;7.50;99.10;;;;;;5010160;28;20129;-77
2022/01/23 12:38:17;;;;;;;111.57;101.28;;;7.50;99.20;;;;;;5015246;28;20058;-77
2022/01/23 12:40:46;;;;;;;111.80;101.50;;;7.50;99.10;;;;;;4997213;28;20062;-77
2022/01/23 12:43:17;;;;;;;113.35;102.85;;;7.50;99.10;;;;;;5013584;28;20098;-78
2022/01/23 12:45:58;;;;;;;111.78;101.38;;;7.60;99.10;;;;;;5012121;28;20057;-78
2022/01/23 12:48:55;;;;;;;112.03;101.55;;;7.60;99.00;;;;;;5013515;28;20101;-80
2022/01/23 12:51:38;;;;;;;111.38;100.97;;;7.60;99.00;;;;;;4983735;28;20112;-80
2022/01/23 12:54:22;;;;;;;112.97;102.53;;;7.60;99.00;;;;;;5033230;28;20124;-80
2022/01/23 12:56:51;;;;;;;112.85;102.35;;;7.60;98.90;;;;;;5033264;28;20169;-79
2022/01/23 12:59:26;;;;;;;110.78;100.38;;;7.60;99.00;;;;;;5029479;28;20050;-79
2022/01/23 13:02:03;;;;;;;113.25;102.75;;;7.60;98.90;;;;;;4997286;28;20053;-78
2022/01/23 13:04:38;;;;;;;111.57;101.18;;;7.60;98.90;;;;;;4996835;28;20138;-77
2022/01/23 13:07:17;;;;;;;114.25;103.65;;;7.60;99.00;;;;;;4996837;28;20058;-77
2022/01/23 13:09:53;;;;;;;113.07;102.47;;;7.60;99.00;;;;;;4977798;28;20057;-78
2022/01/23 13:15:37;;;;;;;112.00;101.50;;;7.60;99.00;;;;;;4977619;28;20132;-78
2022/01/23 13:18:16;;;;;;;113.35;102.75;;;7.60;99.00;;;;;;5008309;28;20511;-78
2022/01/23 13:26:51;;;;;;;112.88;102.38;;;7.60;98.70;;;;;;4994540;28;20137;-77
2022/01/23 13:32:13;;;;;;;113.72;103.13;;;7.60;98.60;;;;;;4970695;28;20050;-77
2022/01/23 13:34:48;;;;;;;114.15;103.60;;;7.60;98.60;;;;;;5008790;28;20132;-77
2022/01/23 13:37:17;;;;;;;115.47;104.78;;;7.60;98.60;;;;;;4991679;28;20051;-77
2022/01/23 13:39:48;;;;;;;114.97;104.38;;;7.60;98.60;;;;;;5008480;28;20053;-76
2022/01/23 13:42:31;;;;;;;116.72;106.03;;;7.60;98.70;;;;;;5008661;28;20051;-76
2022/01/23 13:48:18;;;;;;;112.75;102.10;;;7.60;98.80;;;;;;4975324;28;20560;-78
2022/01/23 13:53:47;;;;;;;115.15;104.38;;;7.60;98.80;;;;;;4975809;28;20062;-77
2022/01/23 13:59:13;;;;;;;114.15;103.55;;;7.60;98.80;;;;;;4975284;28;20054;-77
2022/01/23 14:01:51;;;;;;;;;;;7.60;98.80;;;;;;4993662;28;20054;-79
2022/01/23 14:04:20;;;;;;;113.72;103.00;;;7.60;98.90;;;;;;4976353;28;19948;-78
2022/01/23 14:06:49;;;;;;;113.38;102.82;;;7.60;98.80;;;;;;5010058;28;20575;-78
2022/01/23 14:09:17;;;;;;;114.30;103.60;;;7.70;98.80;;;;;;5008220;28;20532;-77
2022/01/23 14:11:45;;;;;;;113.28;102.78;;;7.70;98.80;;;;;;5008138;28;20051;-78
2022/01/23 14:14:16;;;;;;;112.45;102.03;;;7.70;98.90;;;;;;4993368;28;20054;-78
2022/01/23 14:16:45;;;;;;;115.65;105.00;;;7.70;98.80;;;;;;5015611;28;20042;-77
2022/01/23 14:19:21;;;;;;;113.80;103.20;;;7.70;98.80;;;;;;5011179;28;20046;-77
2022/01/23 14:21:52;;;;;;;113.53;103.03;;;7.70;98.70;;;;;;4994974;28;20145;-77
2022/01/23 14:24:26;;;;;;;113.25;102.75;;;7.70;98.70;;;;;;5012792;28;20133;-78
2022/01/23 14:27:02;;;;;;;112.93;102.32;;;7.70;98.60;;;;;;4994669;28;20576;-79
2022/01/23 14:29:29;;;;;;;;;;;7.70;98.60;;;;;;4995257;28;20129;-80
2022/01/23 14:32:11;;;;;;;115.38;104.57;;;7.70;98.70;;;;;;5027427;28;19925;-77
2022/01/23 14:34:38;;;;;;;114.13;103.35;;;7.70;98.50;;;;;;4999684;28;20160;-77
2022/01/23 14:37:07;;;;;;;114.90;104.25;;;7.70;98.30;;;;;;4998475;28;20060;-79
2022/01/23 14:39:36;;;;;;;113.95;103.50;;;7.60;98.30;;;;;;5032135;28;20058;-73
2022/01/23 14:42:12;;;;;;;114.90;104.10;;;7.60;98.30;;;;;;4999894;28;20050;-77
2022/01/23 14:44:42;;;;;;;113.95;103.45;;;7.60;98.20;;;;;;4999244;28;20062;-77
2022/01/23 14:47:22;;;;;;;113.70;103.20;;;7.60;98.20;;;;;;5013765;28;20536;-80
2022/01/23 14:50:05;;;;;;;115.93;105.25;;;7.70;98.10;;;;;;5016329;28;20050;-78
2022/01/23 14:52:40;;;;;;;115.13;104.55;;;7.60;98.10;;;;;;5016969;28;20066;-79
2022/01/23 14:55:16;;;;;;;114.03;103.60;;;7.60;97.90;;;;;;5001710;28;20164;-77
2022/01/23 14:57:45;;;;;;;115.03;104.30;;;7.60;98.00;;;;;;5037320;28;20054;-76
2022/01/23 15:00:15;;;;;;;114.20;103.63;;;7.60;97.90;;;;;;4999768;28;20094;-76
2022/01/23 15:02:43;;;;;;;113.10;102.68;;;7.60;97.80;;;;;;5038791;28;20140;-77
2022/01/23 15:05:10;;;;;;;112.80;102.28;;;7.60;98.00;;;;;;5018101;28;20050;-76
2022/01/23 15:07:41;;;;;;;111.70;101.25;;;7.60;97.90;;;;;;5004170;28;20887;-78
2022/01/23 15:10:10;;;;;;;114.32;103.72;;;7.60;97.90;;;;;;5016123;28;20047;-77
2022/01/23 15:12:37;;;;;;;114.30;103.70;;;7.60;97.90;;;;;;5015826;28;20058;-77
2022/01/23 15:15:06;;;;;;;110.63;100.03;;;7.60;97.90;;;;;;5030239;28;20141;-77
2022/01/23 15:17:33;;;;;;;112.65;102.05;;;7.60;97.90;;;;;;4997967;28;20095;-76
2022/01/23 15:20:01;;;;;;;114.78;104.00;;;7.60;97.90;;;;;;5034492;28;20524;-78
2022/01/23 15:22:28;;;;;;;114.18;103.57;;;7.60;98.00;;;;;;5042222;28;20519;-78
2022/01/23 15:25:01;;;;;;;113.53;103.03;;;7.50;98.00;;;;;;5045062;28;20182;-78
2022/01/23 15:27:35;;;;;;;111.80;101.18;;;7.50;98.00;;;;;;5015362;28;20058;-80
2022/01/23 15:30:02;;;;;;;112.55;102.05;;;7.60;97.90;;;;;;5006600;28;20087;-81
2022/01/23 15:32:29;;;;;;;113.43;102.93;;;7.60;97.90;;;;;;5004370;28;20053;-81
2022/01/23 15:34:56;;;;;;;113.35;102.63;;;7.50;97.90;;;;;;4995865;28;20185;-80
2022/01/23 15:37:23;;;;;;;113.68;103.07;;;7.50;97.90;;;;;;4998100;28;20134;-77
2022/01/23 15:39:51;;;;;;;;;;;7.60;97.80;;;;;;4996587;28;20069;-76